Time;durP1;ratioP1;P1;durP2;ratioP2;P2;SDS_P1;SDS_P2;PMS_P1;PMS_P2;Temp;Humidity;BMP_temperature;BMP_pressure;BME280_temperature;BME280_humidity;BME280_pressure;Samples;Min_cycle;Max_cycle;Signal;HPM_P1;HPM_P2
2021/01/09 00:00:27;;;;;;;13.67;9.90;;;1.50;99.90;;;;;;5008978;28;20170;-76
2021/01/09 00:02:53;;;;;;;16.83;10.52;;;1.50;99.90;;;;;;5010487;28;20213;-76
2021/01/09 00:05:19;;;;;;;13.30;9.83;;;1.50;99.90;;;;;;5028329;28;20310;-76
2021/01/09 00:07:44;;;;;;;13.10;10.13;;;1.60;99.90;;;;;;5014240;28;20460;-76
2021/01/09 00:10:10;;;;;;;13.23;10.10;;;1.60;99.90;;;;;;5013194;28;20408;-77
2021/01/09 00:12:38;;;;;;;14.93;11.00;;;1.60;99.90;;;;;;4994921;28;20213;-76
2021/01/09 00:15:05;;;;;;;14.52;11.02;;;1.60;99.90;;;;;;5012826;28;20613;-76
2021/01/09 00:17:31;;;;;;;16.08;10.70;;;1.60;99.90;;;;;;5012474;28;20312;-77
2021/01/09 00:19:57;;;;;;;12.90;9.17;;;1.60;99.90;;;;;;5013037;28;20590;-77
2021/01/09 00:22:23;;;;;;;14.23;10.32;;;1.50;99.90;;;;;;5012303;28;20212;-77
2021/01/09 00:24:49;;;;;;;13.27;10.52;;;1.50;99.90;;;;;;5029095;28;20208;-76
2021/01/09 00:27:15;;;;;;;17.37;10.17;;;1.60;99.90;;;;;;5010022;28;20210;-76
2021/01/09 00:29:42;;;;;;;16.25;10.75;;;1.50;99.90;;;;;;5026394;28;20459;-77
2021/01/09 00:32:08;;;;;;;13.60;9.50;;;1.60;99.90;;;;;;5012243;28;20326;-77
2021/01/09 00:34:34;;;;;;;14.60;10.65;;;1.60;99.90;;;;;;5012807;28;20280;-78
2021/01/09 00:37:00;;;;;;;14.77;10.33;;;1.60;99.90;;;;;;5012044;28;20293;-77
2021/01/09 00:39:28;;;;;;;21.53;10.10;;;1.60;99.90;;;;;;4995058;28;20248;-76
2021/01/09 00:41:54;;;;;;;11.57;10.00;;;1.60;99.90;;;;;;5012195;28;20441;-76
2021/01/09 00:44:19;;;;;;;12.20;9.93;;;1.60;99.90;;;;;;5012627;28;20260;-78
2021/01/09 00:46:45;;;;;;;13.90;10.37;;;1.60;99.90;;;;;;5011901;28;20514;-77
2021/01/09 00:49:11;;;;;;;13.40;10.87;;;1.60;99.90;;;;;;5012544;28;20421;-77
2021/01/09 00:51:37;;;;;;;13.17;10.23;;;1.60;99.90;;;;;;5012274;28;20725;-78
2021/01/09 00:54:03;;;;;;;17.77;12.07;;;1.50;99.90;;;;;;4994619;28;20204;-77
2021/01/09 00:56:28;;;;;;;14.07;9.85;;;1.50;99.90;;;;;;5011640;28;20723;-76
2021/01/09 00:58:54;;;;;;;13.47;10.37;;;1.50;99.90;;;;;;5012247;28;20206;-77
2021/01/09 01:01:20;;;;;;;19.60;11.77;;;1.60;99.90;;;;;;5015797;28;20210;-76
2021/01/09 01:03:45;;;;;;;16.27;10.60;;;1.60;99.90;;;;;;5025950;28;20210;-76
2021/01/09 01:06:11;;;;;;;16.30;11.40;;;1.60;99.90;;;;;;5025355;28;20295;-76
2021/01/09 01:08:38;;;;;;;15.77;11.00;;;1.70;99.90;;;;;;5025764;28;20664;-76
2021/01/09 01:11:09;;;;;;;15.25;10.88;;;1.70;99.90;;;;;;5008214;28;20173;-76
2021/01/09 01:13:35;;;;;;;16.98;12.02;;;1.60;99.90;;;;;;5024685;28;20708;-76
2021/01/09 01:16:00;;;;;;;14.17;10.43;;;1.60;99.90;;;;;;5025066;28;20201;-76
2021/01/09 01:18:26;;;;;;;15.20;10.70;;;1.60;99.90;;;;;;5026591;28;20447;-76
2021/01/09 01:20:52;;;;;;;13.73;10.00;;;1.60;99.90;;;;;;5026663;28;20168;-76
2021/01/09 01:23:18;;;;;;;15.13;10.10;;;1.60;99.90;;;;;;5025871;28;20206;-76
2021/01/09 01:25:44;;;;;;;15.77;10.30;;;1.60;99.90;;;;;;5023965;28;20224;-76
2021/01/09 01:28:10;;;;;;;16.50;10.55;;;1.60;99.90;;;;;;5024872;28;20210;-76
2021/01/09 01:30:36;;;;;;;14.20;10.90;;;1.60;99.90;;;;;;5025307;28;20768;-76
2021/01/09 01:33:03;;;;;;;15.27;9.70;;;1.60;99.90;;;;;;5024672;28;20448;-76
2021/01/09 01:35:28;;;;;;;16.67;10.55;;;1.60;99.90;;;;;;5007754;28;20441;-76
2021/01/09 01:37:54;;;;;;;17.00;11.27;;;1.60;99.90;;;;;;5006794;28;20210;-76
2021/01/09 01:40:24;;;;;;;13.27;10.03;;;1.60;99.90;;;;;;5026473;28;20186;-76
2021/01/09 01:42:50;;;;;;;18.65;10.65;;;1.60;99.90;;;;;;5024773;28;20943;-76
2021/01/09 01:45:16;;;;;;;14.60;10.48;;;1.60;99.90;;;;;;5023505;28;20205;-76
2021/01/09 01:47:43;;;;;;;17.00;10.73;;;1.60;99.90;;;;;;5003431;28;20213;-77
2021/01/09 01:50:10;;;;;;;13.15;9.07;;;1.60;99.90;;;;;;5011620;28;20533;-77
2021/01/09 01:52:35;;;;;;;12.45;9.55;;;1.60;99.90;;;;;;5010743;28;20221;-77
2021/01/09 01:55:02;;;;;;;17.83;11.20;;;1.60;99.90;;;;;;5011416;28;20194;-77
2021/01/09 01:57:28;;;;;;;15.98;11.23;;;1.60;99.90;;;;;;5010644;28;20209;-77
2021/01/09 01:59:54;;;;;;;15.90;9.88;;;1.60;99.90;;;;;;5011515;28;20194;-77
2021/01/09 02:02:20;;;;;;;11.70;8.77;;;1.60;99.90;;;;;;5011229;28;20288;-77
2021/01/09 02:04:58;;;;;;;15.43;10.98;;;1.60;99.90;;;;;;5011215;28;20255;-77
2021/01/09 02:07:30;;;;;;;14.65;10.50;;;1.70;99.90;;;;;;5016429;28;20209;-76
2021/01/09 02:09:57;;;;;;;17.17;10.77;;;1.70;99.90;;;;;;5008052;28;20186;-76
2021/01/09 02:12:36;;;;;;;17.65;10.43;;;1.60;99.90;;;;;;5023631;28;20240;-76
2021/01/09 02:15:03;;;;;;;18.20;11.70;;;1.70;99.90;;;;;;5006683;28;20209;-76
2021/01/09 02:17:30;;;;;;;17.92;11.30;;;1.70;99.90;;;;;;5022429;28;20663;-77
2021/01/09 02:19:59;;;;;;;16.83;12.45;;;1.70;99.90;;;;;;5011880;28;20211;-77
2021/01/09 02:22:25;;;;;;;18.10;11.57;;;1.80;99.90;;;;;;5023177;28;20655;-76
2021/01/09 02:24:51;;;;;;;21.17;12.32;;;1.80;99.90;;;;;;5013627;28;20595;-78
2021/01/09 02:27:17;;;;;;;16.70;11.50;;;1.80;99.90;;;;;;5010786;28;20202;-77
2021/01/09 02:30:01;;;;;;;19.13;12.03;;;1.80;99.90;;;;;;5010837;28;20192;-77
2021/01/09 02:32:30;;;;;;;16.63;10.82;;;1.80;99.90;;;;;;5021473;28;20519;-76
2021/01/09 02:34:58;;;;;;;17.90;11.45;;;1.70;99.90;;;;;;5023098;28;20216;-76
2021/01/09 02:37:25;;;;;;;16.98;11.77;;;1.80;99.90;;;;;;5018461;28;20233;-77
2021/01/09 02:39:51;;;;;;;15.85;12.80;;;1.70;99.90;;;;;;5014832;28;20726;-77
2021/01/09 02:42:20;;;;;;;17.50;10.88;;;1.70;99.90;;;;;;5020975;28;20272;-76
2021/01/09 02:44:51;;;;;;;16.60;11.20;;;1.80;99.90;;;;;;5017053;28;20198;-77
2021/01/09 02:47:17;;;;;;;20.42;12.23;;;1.70;99.90;;;;;;5014678;28;20253;-77
2021/01/09 02:49:43;;;;;;;16.65;11.10;;;1.80;99.90;;;;;;5014771;28;20190;-77
2021/01/09 02:52:09;;;;;;;17.40;11.30;;;1.70;99.90;;;;;;5014123;28;20216;-78
2021/01/09 02:54:34;;;;;;;20.47;12.80;;;1.70;99.90;;;;;;5013354;28;20295;-77
2021/01/09 02:57:00;;;;;;;19.70;11.40;;;1.70;99.90;;;;;;5013859;28;20648;-77
2021/01/09 02:59:26;;;;;;;17.27;11.90;;;1.80;99.90;;;;;;5014644;28;20190;-77
2021/01/09 03:01:51;;;;;;;24.50;13.93;;;1.90;99.90;;;;;;5012666;28;20635;-77
2021/01/09 03:04:17;;;;;;;20.73;12.77;;;1.90;99.90;;;;;;5014433;28;20216;-77
2021/01/09 03:06:43;;;;;;;19.20;12.63;;;1.90;99.90;;;;;;5013677;28;20263;-77
2021/01/09 03:09:11;;;;;;;17.27;11.87;;;1.90;99.90;;;;;;5018740;28;20196;-77
2021/01/09 03:11:37;;;;;;;18.58;12.90;;;1.90;99.90;;;;;;5013811;28;20502;-77
2021/01/09 03:14:02;;;;;;;19.03;10.80;;;1.90;99.90;;;;;;5014194;28;20237;-77
2021/01/09 03:16:28;;;;;;;18.97;11.60;;;1.90;99.90;;;;;;5013643;28;20448;-78
2021/01/09 03:18:54;;;;;;;17.90;14.13;;;1.90;99.90;;;;;;5014059;28;20193;-77
2021/01/09 03:21:19;;;;;;;25.70;12.40;;;1.90;99.90;;;;;;5013943;28;20224;-77
2021/01/09 03:23:45;;;;;;;19.67;12.30;;;1.90;99.90;;;;;;5014021;28;20724;-77
2021/01/09 03:26:11;;;;;;;22.53;12.60;;;1.90;99.90;;;;;;5013572;28;20217;-77
2021/01/09 03:28:36;;;;;;;16.43;11.50;;;1.90;99.90;;;;;;5017038;28;20227;-76
2021/01/09 03:31:02;;;;;;;18.10;11.63;;;1.80;99.90;;;;;;5003335;28;20205;-76
2021/01/09 03:33:29;;;;;;;22.80;12.37;;;1.80;99.90;;;;;;5022284;28;20186;-76
2021/01/09 03:35:55;;;;;;;30.08;13.18;;;1.80;99.90;;;;;;5020315;28;20511;-77
2021/01/09 03:38:21;;;;;;;21.65;12.15;;;1.80;99.90;;;;;;5019111;28;20180;-77
2021/01/09 03:40:47;;;;;;;25.97;11.80;;;1.90;99.90;;;;;;5016735;28;20194;-76
2021/01/09 03:43:12;;;;;;;23.20;12.93;;;1.80;99.90;;;;;;4996853;28;20441;-77
2021/01/09 03:45:38;;;;;;;16.63;11.60;;;1.90;99.90;;;;;;5013518;28;20202;-77
2021/01/09 03:48:05;;;;;;;20.03;12.60;;;1.80;99.90;;;;;;5013113;28;20209;-77
2021/01/09 03:50:30;;;;;;;20.92;11.35;;;1.70;99.90;;;;;;5013077;28;20432;-77
2021/01/09 03:52:56;;;;;;;13.93;10.40;;;1.70;99.90;;;;;;5013214;28;20214;-77
2021/01/09 03:55:22;;;;;;;19.50;12.03;;;1.70;99.90;;;;;;5013296;28;20197;-77
2021/01/09 03:57:47;;;;;;;21.80;11.13;;;1.70;99.90;;;;;;5011637;28;20263;-77
2021/01/09 04:00:14;;;;;;;20.97;11.93;;;1.80;99.90;;;;;;5013494;28;20186;-77
2021/01/09 04:02:40;;;;;;;16.23;10.90;;;1.80;99.90;;;;;;5013828;28;20203;-76
2021/01/09 04:05:07;;;;;;;18.60;12.35;;;1.70;99.90;;;;;;5027551;28;20213;-76
2021/01/09 04:07:33;;;;;;;21.17;12.55;;;1.70;99.90;;;;;;5041813;28;20216;-76
2021/01/09 04:09:59;;;;;;;18.20;10.80;;;1.70;99.90;;;;;;5041423;28;20583;-76
2021/01/09 04:12:25;;;;;;;22.00;10.77;;;1.70;99.90;;;;;;5019489;28;20205;-77
2021/01/09 04:14:51;;;;;;;18.73;11.40;;;1.70;99.90;;;;;;5032914;28;20212;-77
2021/01/09 04:17:16;;;;;;;21.33;11.33;;;1.80;99.90;;;;;;5014604;28;20579;-77
2021/01/09 04:19:42;;;;;;;18.23;11.30;;;1.70;99.90;;;;;;5035329;28;20245;-76
2021/01/09 04:22:08;;;;;;;20.30;10.50;;;1.70;99.90;;;;;;5036098;28;20206;-76
2021/01/09 04:24:33;;;;;;;19.83;11.40;;;1.70;99.90;;;;;;5002704;28;20881;-76
2021/01/09 04:27:01;;;;;;;20.60;11.70;;;1.70;99.90;;;;;;5019850;28;20209;-76
2021/01/09 04:29:27;;;;;;;18.80;11.65;;;1.70;99.90;;;;;;5021404;28;20735;-77
2021/01/09 04:31:53;;;;;;;24.13;12.63;;;1.70;99.90;;;;;;5016978;28;20911;-76
2021/01/09 04:34:20;;;;;;;19.35;9.98;;;1.70;99.90;;;;;;5013150;28;20186;-77
2021/01/09 04:36:46;;;;;;;16.73;10.30;;;1.70;99.90;;;;;;5012194;28;20238;-77
2021/01/09 04:39:12;;;;;;;19.10;13.00;;;1.60;99.90;;;;;;5015615;28;20202;-76
2021/01/09 04:41:38;;;;;;;20.90;11.97;;;1.70;99.90;;;;;;5018522;28;20213;-76
2021/01/09 04:44:05;;;;;;;19.30;11.85;;;1.80;99.90;;;;;;5020894;28;20477;-76
2021/01/09 04:46:38;;;;;;;26.92;12.73;;;1.80;99.90;;;;;;5020811;28;20268;-76
2021/01/09 04:49:03;;;;;;;19.13;12.38;;;1.80;99.90;;;;;;5012618;28;20216;-77
2021/01/09 04:51:29;;;;;;;19.70;11.60;;;1.80;99.90;;;;;;5012114;28;20634;-77
2021/01/09 04:53:56;;;;;;;20.00;13.00;;;1.80;99.90;;;;;;5012602;28;20468;-77
2021/01/09 04:56:23;;;;;;;22.83;12.80;;;1.80;99.90;;;;;;5011588;28;20680;-77
2021/01/09 04:58:49;;;;;;;19.52;13.90;;;1.80;99.90;;;;;;5012376;28;20262;-77
2021/01/09 05:01:16;;;;;;;19.07;12.47;;;1.80;99.90;;;;;;5010935;28;20284;-78
2021/01/09 05:03:41;;;;;;;17.60;11.52;;;1.80;99.90;;;;;;5012134;28;20193;-77
2021/01/09 05:06:07;;;;;;;22.03;13.13;;;1.80;99.90;;;;;;5011493;28;20166;-77
2021/01/09 05:08:33;;;;;;;21.15;12.52;;;1.80;99.90;;;;;;4994643;28;20253;-77
2021/01/09 05:10:59;;;;;;;27.93;15.07;;;1.80;99.90;;;;;;5011663;28;20268;-77
2021/01/09 05:13:24;;;;;;;24.57;13.77;;;1.80;99.90;;;;;;5011829;28;20178;-77
2021/01/09 05:15:54;;;;;;;22.37;14.77;;;1.90;99.90;;;;;;5012070;28;20445;-77
2021/01/09 05:18:20;;;;;;;23.73;14.55;;;1.90;99.90;;;;;;5011904;28;20624;-77
2021/01/09 05:20:45;;;;;;;25.63;14.47;;;1.90;99.90;;;;;;5012126;28;20213;-77
2021/01/09 05:23:11;;;;;;;25.00;12.73;;;1.90;99.90;;;;;;5011039;28;20205;-77
2021/01/09 05:25:38;;;;;;;25.65;15.43;;;1.80;99.90;;;;;;5011763;28;20236;-77
2021/01/09 05:28:06;;;;;;;21.85;14.95;;;1.80;99.90;;;;;;5011061;28;20640;-77
2021/01/09 05:30:33;;;;;;;23.70;12.85;;;1.80;99.90;;;;;;5014672;28;20182;-75
2021/01/09 05:33:00;;;;;;;23.70;14.80;;;1.80;99.90;;;;;;5017388;28;20209;-76
2021/01/09 05:35:29;;;;;;;30.17;13.77;;;1.80;99.90;;;;;;5016092;28;20699;-76
2021/01/09 05:37:56;;;;;;;30.55;15.38;;;1.80;99.90;;;;;;5016921;28;20216;-76
2021/01/09 05:40:21;;;;;;;20.25;13.38;;;1.80;99.90;;;;;;5015331;28;20201;-76
2021/01/09 05:42:49;;;;;;;22.13;14.47;;;1.80;99.90;;;;;;5016972;28;20221;-76
2021/01/09 05:45:16;;;;;;;31.30;17.27;;;1.80;99.90;;;;;;5016496;28;20621;-76
2021/01/09 05:47:44;;;;;;;24.70;16.55;;;1.80;99.90;;;;;;5014755;28;20241;-77
2021/01/09 05:50:11;;;;;;;24.73;15.90;;;1.80;99.90;;;;;;5016825;28;20592;-76
2021/01/09 05:52:39;;;;;;;27.73;15.02;;;1.80;99.90;;;;;;5012280;28;20268;-77
2021/01/09 05:55:07;;;;;;;29.02;16.63;;;1.80;99.90;;;;;;5011276;28;20189;-77
2021/01/09 05:57:34;;;;;;;32.40;17.30;;;1.80;99.90;;;;;;5009564;28;20711;-77
2021/01/09 06:00:11;;;;;;;24.13;16.50;;;1.80;99.90;;;;;;5011394;28;20244;-77
2021/01/09 06:03:06;;;;;;;30.35;15.18;;;1.70;99.90;;;;;;5011710;28;20221;-76
2021/01/09 06:05:38;;;;;;;22.33;13.80;;;1.70;99.90;;;;;;5014646;28;20250;-76
2021/01/09 06:08:07;;;;;;;27.73;15.38;;;1.70;99.90;;;;;;5013082;28;20232;-76
2021/01/09 06:10:37;;;;;;;26.08;15.23;;;1.60;99.90;;;;;;5013141;28;20536;-76
2021/01/09 06:13:05;;;;;;;26.48;15.85;;;1.70;99.90;;;;;;5013368;28;20628;-76
2021/01/09 06:15:31;;;;;;;25.80;15.80;;;1.70;99.90;;;;;;5013846;28;20702;-76
2021/01/09 06:18:00;;;;;;;27.57;14.67;;;1.80;99.90;;;;;;5013890;28;20218;-76
2021/01/09 06:20:26;;;;;;;24.17;14.07;;;1.80;99.90;;;;;;5014323;28;20464;-76
2021/01/09 06:22:54;;;;;;;27.33;14.88;;;1.80;99.90;;;;;;5014117;28;20201;-76
2021/01/09 06:25:21;;;;;;;25.20;15.23;;;1.70;99.90;;;;;;5017695;28;20205;-76
2021/01/09 06:27:52;;;;;;;27.73;15.45;;;1.70;99.90;;;;;;5014564;28;20576;-76
2021/01/09 06:30:20;;;;;;;25.15;14.27;;;1.70;99.90;;;;;;5011866;28;20557;-77
2021/01/09 06:32:55;;;;;;;24.80;15.80;;;1.70;99.90;;;;;;5011823;28;20557;-77
2021/01/09 06:35:21;;;;;;;26.77;16.67;;;1.70;99.90;;;;;;5013417;28;20600;-77
2021/01/09 06:37:47;;;;;;;22.90;15.90;;;1.80;99.90;;;;;;5012613;28;20239;-78
2021/01/09 06:40:14;;;;;;;25.77;16.87;;;1.80;99.90;;;;;;5013913;28;20523;-76
2021/01/09 06:42:42;;;;;;;26.27;15.38;;;1.80;99.90;;;;;;5013206;28;20296;-77
2021/01/09 06:45:08;;;;;;;28.13;16.00;;;1.80;99.90;;;;;;5011558;28;20209;-77
2021/01/09 06:47:34;;;;;;;30.00;16.45;;;1.80;99.90;;;;;;5009842;28;20210;-77
2021/01/09 06:50:18;;;;;;;23.90;14.90;;;1.70;99.90;;;;;;5011155;28;20681;-77
2021/01/09 06:52:56;;;;;;;26.38;16.13;;;1.70;99.90;;;;;;5011997;28;20463;-76
2021/01/09 06:55:37;;;;;;;24.55;15.95;;;1.70;99.90;;;;;;5012242;28;20687;-76
2021/01/09 06:58:16;;;;;;;25.83;15.60;;;1.70;99.90;;;;;;4994011;28;20221;-77
2021/01/09 07:00:41;;;;;;;23.63;14.80;;;1.80;99.90;;;;;;4975329;28;20688;-76
2021/01/09 07:03:17;;;;;;;27.53;16.13;;;1.70;99.90;;;;;;4993171;28;20246;-77
2021/01/09 07:05:46;;;;;;;30.13;16.70;;;1.70;99.90;;;;;;4991658;28;20206;-77
2021/01/09 07:08:24;;;;;;;30.98;16.70;;;1.70;99.90;;;;;;4993401;28;20572;-76
2021/01/09 07:10:55;;;;;;;28.75;15.82;;;1.70;99.90;;;;;;4991265;28;20190;-76
2021/01/09 07:13:22;;;;;;;30.55;14.60;;;1.70;99.90;;;;;;4993736;28;20280;-77
2021/01/09 07:16:09;;;;;;;27.50;15.63;;;1.70;99.90;;;;;;4992102;28;20183;-76
2021/01/09 07:18:50;;;;;;;24.55;14.38;;;1.80;99.90;;;;;;4991838;28;20217;-77
2021/01/09 07:21:19;;;;;;;37.80;15.75;;;1.70;99.90;;;;;;4992990;28;20285;-77
2021/01/09 07:23:51;;;;;;;38.10;18.85;;;1.80;99.90;;;;;;5009099;28;20201;-77
2021/01/09 07:26:19;;;;;;;24.67;15.77;;;1.80;99.90;;;;;;5014566;28;20237;-77
2021/01/09 07:28:46;;;;;;;37.67;17.92;;;1.80;99.90;;;;;;5014332;28;20696;-76
2021/01/09 07:31:12;;;;;;;42.50;18.77;;;1.80;99.90;;;;;;5013582;28;20208;-77
2021/01/09 07:33:39;;;;;;;40.47;18.37;;;1.80;99.90;;;;;;5014449;28;20186;-77
2021/01/09 07:36:05;;;;;;;32.75;18.50;;;1.80;99.90;;;;;;5014418;28;20896;-77
2021/01/09 07:38:31;;;;;;;29.83;17.60;;;1.80;99.90;;;;;;5014115;28;20189;-77
2021/01/09 07:41:00;;;;;;;25.33;14.90;;;1.70;99.90;;;;;;5013405;28;20717;-78
2021/01/09 07:43:44;;;;;;;34.72;16.88;;;1.70;99.90;;;;;;4996068;28;20197;-77
2021/01/09 07:46:30;;;;;;;30.13;18.27;;;1.80;99.90;;;;;;5013780;28;20186;-77
2021/01/09 07:49:00;;;;;;;27.60;17.25;;;1.80;99.90;;;;;;5014382;28;20235;-76
2021/01/09 07:51:49;;;;;;;30.77;18.70;;;1.70;99.90;;;;;;5013392;28;20293;-77
2021/01/09 07:54:38;;;;;;;35.60;17.25;;;1.70;99.90;;;;;;5013588;28;20193;-77
2021/01/09 07:57:22;;;;;;;29.70;15.15;;;1.60;99.90;;;;;;5025590;23;20230;-77
2021/01/09 07:59:54;;;;;;;29.73;16.38;;;1.60;99.90;;;;;;4995858;28;20194;-77
2021/01/09 08:02:29;;;;;;;29.05;17.02;;;1.60;99.90;;;;;;5012845;28;20217;-77
2021/01/09 08:05:21;;;;;;;29.17;17.05;;;1.60;99.90;;;;;;4993396;28;20226;-76
2021/01/09 08:07:53;;;;;;;28.88;17.25;;;1.60;99.90;;;;;;4993656;28;20230;-78
2021/01/09 08:10:19;;;;;;;27.92;17.15;;;1.60;99.90;;;;;;4993416;28;20195;-76
2021/01/09 08:12:45;;;;;;;27.57;17.60;;;1.60;99.90;;;;;;4993143;28;20217;-78
2021/01/09 08:15:12;;;;;;;35.60;19.95;;;1.60;99.90;;;;;;4991942;28;20449;-76
2021/01/09 08:17:38;;;;;;;31.70;17.00;;;1.60;99.90;;;;;;4995945;28;20229;-77
2021/01/09 08:20:08;;;;;;;31.20;17.67;;;1.70;99.90;;;;;;4993920;28;20195;-77
2021/01/09 08:22:36;;;;;;;33.15;17.65;;;1.70;99.90;;;;;;4992608;28;20437;-78
2021/01/09 08:25:12;;;;;;;32.53;17.95;;;1.70;99.90;;;;;;4993060;28;20198;-78
2021/01/09 08:27:51;;;;;;;38.38;20.17;;;1.70;99.90;;;;;;4993558;28;20217;-78
2021/01/09 08:30:20;;;;;;;40.25;20.33;;;1.70;99.90;;;;;;4993651;28;20612;-78
2021/01/09 08:32:46;;;;;;;34.50;18.00;;;1.80;99.90;;;;;;4992809;28;20210;-78
2021/01/09 08:35:13;;;;;;;33.58;19.13;;;1.80;99.90;;;;;;4991724;28;20203;-78
2021/01/09 08:37:40;;;;;;;47.30;23.65;;;1.80;99.90;;;;;;4993027;28;20685;-79
2021/01/09 08:40:17;;;;;;;47.45;23.10;;;1.80;99.90;;;;;;4993597;28;20278;-78
2021/01/09 08:42:53;;;;;;;43.92;21.23;;;1.80;99.90;;;;;;4993453;28;20727;-79
2021/01/09 08:45:34;;;;;;;42.58;22.88;;;1.90;99.90;;;;;;4976135;28;20210;-79
2021/01/09 08:48:01;;;;;;;36.75;19.40;;;1.90;99.90;;;;;;4992997;28;20202;-77
2021/01/09 08:50:29;;;;;;;40.22;21.60;;;1.90;99.90;;;;;;5003051;28;20244;-79
2021/01/09 08:52:58;;;;;;;36.35;19.73;;;1.90;99.90;;;;;;4992423;28;20202;-79
2021/01/09 08:55:27;;;;;;;36.60;20.27;;;1.80;99.90;;;;;;4993594;28;20604;-79
2021/01/09 08:57:53;;;;;;;33.65;18.92;;;1.80;99.90;;;;;;4993038;28;20206;-77
2021/01/09 09:00:19;;;;;;;32.85;17.55;;;1.80;99.90;;;;;;4993427;28;20202;-78
2021/01/09 09:02:48;;;;;;;34.43;19.70;;;1.80;99.90;;;;;;4991273;28;20218;-77
2021/01/09 09:05:14;;;;;;;33.58;19.35;;;1.80;99.90;;;;;;5001616;28;20475;-78
2021/01/09 09:07:44;;;;;;;33.38;19.17;;;1.80;99.90;;;;;;4988507;28;20210;-78
2021/01/09 09:10:13;;;;;;;38.72;22.10;;;1.80;99.90;;;;;;4994095;28;20193;-77
2021/01/09 09:12:39;;;;;;;32.63;18.13;;;1.80;99.90;;;;;;5010344;28;20205;-79
2021/01/09 09:15:10;;;;;;;35.60;19.20;;;1.80;99.90;;;;;;5011155;28;20225;-77
2021/01/09 09:17:39;;;;;;;29.98;16.92;;;1.80;99.90;;;;;;4999092;28;20465;-78
2021/01/09 09:20:06;;;;;;;31.50;18.83;;;1.80;99.90;;;;;;4993844;28;20665;-77
2021/01/09 09:22:31;;;;;;;29.77;17.85;;;1.80;99.90;;;;;;4996957;28;20217;-78
2021/01/09 09:24:57;;;;;;;31.67;18.13;;;1.80;99.90;;;;;;4994054;28;20217;-79
2021/01/09 09:27:24;;;;;;;28.92;17.25;;;1.80;99.90;;;;;;4999138;28;20208;-79
2021/01/09 09:30:09;;;;;;;28.42;16.42;;;1.80;99.90;;;;;;5001945;28;20747;-78
2021/01/09 09:32:36;;;;;;;30.67;17.35;;;1.80;99.90;;;;;;5004363;28;20213;-77
2021/01/09 09:35:29;;;;;;;28.65;15.32;;;1.90;99.90;;;;;;4995777;28;20211;-77
2021/01/09 09:37:59;;;;;;;29.45;15.95;;;1.90;99.90;;;;;;4988264;28;20220;-77
2021/01/09 09:40:27;;;;;;;24.30;14.65;;;1.90;99.90;;;;;;5004544;28;20290;-79
2021/01/09 09:42:53;;;;;;;29.30;16.42;;;1.90;99.90;;;;;;4992755;28;20580;-78
2021/01/09 09:45:20;;;;;;;22.70;14.48;;;1.90;99.90;;;;;;4991975;28;20198;-79
2021/01/09 09:47:47;;;;;;;22.77;14.52;;;1.90;99.90;;;;;;4997321;28;20213;-77
2021/01/09 09:50:18;;;;;;;26.55;15.10;;;1.90;99.90;;;;;;4991733;28;20252;-78
2021/01/09 09:52:44;;;;;;;26.25;15.27;;;1.90;99.90;;;;;;4993848;28;20210;-79
2021/01/09 09:55:10;;;;;;;28.30;17.03;;;1.90;99.90;;;;;;5010146;28;20244;-79
2021/01/09 09:57:36;;;;;;;26.80;14.50;;;2.00;99.90;;;;;;5002085;28;20289;-78
2021/01/09 10:00:12;;;;;;;26.70;14.10;;;2.00;99.90;;;;;;5010768;28;20395;-77
2021/01/09 10:02:53;;;;;;;33.05;16.30;;;2.00;99.90;;;;;;5003951;28;20217;-77
2021/01/09 10:05:19;;;;;;;24.95;14.88;;;2.00;99.90;;;;;;5001071;28;20198;-77
2021/01/09 10:07:46;;;;;;;20.10;12.98;;;2.00;99.90;;;;;;5000937;28;20688;-78
2021/01/09 10:10:20;;;;;;;19.65;11.70;;;2.10;99.90;;;;;;4971110;28;20214;-79
2021/01/09 10:12:58;;;;;;;14.80;9.77;;;2.20;99.90;;;;;;5000724;28;20244;-78
2021/01/09 10:15:24;;;;;;;23.52;12.90;;;2.30;99.90;;;;;;4991112;28;20198;-78
2021/01/09 10:17:59;;;;;;;28.23;15.68;;;2.30;99.90;;;;;;4997714;28;20585;-78
2021/01/09 10:20:25;;;;;;;29.00;16.95;;;2.40;99.90;;;;;;4980751;28;20612;-77
2021/01/09 10:22:51;;;;;;;27.17;16.17;;;2.30;99.90;;;;;;4990836;28;20222;-78
2021/01/09 10:25:17;;;;;;;19.67;13.30;;;2.30;99.90;;;;;;5006962;28;20826;-79
2021/01/09 10:27:42;;;;;;;31.07;15.53;;;2.30;99.90;;;;;;4995840;28;20209;-77
2021/01/09 10:30:09;;;;;;;29.47;15.90;;;2.40;99.90;;;;;;4997728;28;20433;-77
2021/01/09 10:32:34;;;;;;;33.80;18.67;;;2.40;99.90;;;;;;4993427;28;20206;-78
2021/01/09 10:35:00;;;;;;;26.60;16.33;;;2.40;99.90;;;;;;5006719;28;20660;-78
2021/01/09 10:37:25;;;;;;;42.27;18.23;;;2.40;99.90;;;;;;4990247;28;20589;-78
2021/01/09 10:39:51;;;;;;;29.20;17.10;;;2.40;99.90;;;;;;4981317;28;20318;-78
2021/01/09 10:42:17;;;;;;;32.13;17.00;;;2.50;99.90;;;;;;4999158;28;20218;-77
2021/01/09 10:44:42;;;;;;;32.77;18.57;;;2.40;99.90;;;;;;5007621;28;20202;-77
2021/01/09 10:47:08;;;;;;;37.80;17.47;;;2.50;99.90;;;;;;5006430;28;20225;-77
2021/01/09 10:49:34;;;;;;;32.83;19.10;;;2.50;99.90;;;;;;4998658;28;20170;-77
2021/01/09 10:52:00;;;;;;;32.60;17.50;;;2.50;99.90;;;;;;4997027;28;20215;-77
2021/01/09 10:54:26;;;;;;;32.07;17.30;;;2.40;99.90;;;;;;4995903;28;20197;-77
2021/01/09 10:56:51;;;;;;;36.57;19.70;;;2.40;99.90;;;;;;4996239;28;20460;-77
2021/01/09 10:59:17;;;;;;;40.70;19.53;;;2.30;99.90;;;;;;4999761;28;20907;-77
2021/01/09 11:01:43;;;;;;;34.70;18.27;;;2.30;99.90;;;;;;5014575;28;20504;-77
2021/01/09 11:04:08;;;;;;;40.50;20.47;;;2.30;99.90;;;;;;5008057;28;20260;-78
2021/01/09 11:06:34;;;;;;;36.80;19.47;;;2.40;99.90;;;;;;5002766;28;20217;-78
2021/01/09 11:09:00;;;;;;;45.80;23.60;;;2.30;99.90;;;;;;5015504;28;20181;-77
2021/01/09 11:11:26;;;;;;;40.10;19.70;;;2.30;99.90;;;;;;5010286;28;21001;-77
2021/01/09 11:13:51;;;;;;;34.80;20.30;;;2.40;99.90;;;;;;5004504;28;20736;-77
2021/01/09 11:16:21;;;;;;;34.80;19.93;;;2.40;99.90;;;;;;4998408;28;20213;-78
2021/01/09 11:18:47;;;;;;;43.92;23.98;;;2.50;99.90;;;;;;4994097;28;20217;-77
2021/01/09 11:21:16;;;;;;;35.63;20.08;;;2.50;99.90;;;;;;4988480;28;20194;-78
2021/01/09 11:23:43;;;;;;;36.55;20.88;;;2.50;99.90;;;;;;4989467;28;20203;-78
2021/01/09 11:26:12;;;;;;;32.42;18.88;;;2.50;99.90;;;;;;5004414;28;20198;-78
2021/01/09 11:28:39;;;;;;;39.35;21.25;;;2.40;99.90;;;;;;4993908;28;20767;-79
2021/01/09 11:31:09;;;;;;;45.10;22.60;;;2.40;99.90;;;;;;5005579;28;20203;-78
2021/01/09 11:33:34;;;;;;;37.65;19.35;;;2.40;99.90;;;;;;5008143;28;20684;-77
2021/01/09 11:36:00;;;;;;;35.00;19.50;;;2.50;99.90;;;;;;4998462;28;20198;-77
2021/01/09 11:38:26;;;;;;;34.90;22.37;;;2.60;99.90;;;;;;5001497;28;20198;-77
2021/01/09 11:40:52;;;;;;;33.00;18.77;;;2.50;99.90;;;;;;4999664;28;20198;-78
2021/01/09 11:43:18;;;;;;;35.40;18.03;;;2.60;99.90;;;;;;4999015;28;20217;-77
2021/01/09 11:45:44;;;;;;;30.77;18.37;;;2.60;99.90;;;;;;5010790;28;20246;-77
2021/01/09 11:48:09;;;;;;;34.63;20.20;;;2.50;99.90;;;;;;4997801;28;20463;-77
2021/01/09 11:50:35;;;;;;;31.97;18.30;;;2.50;99.90;;;;;;5017541;28;20255;-77
2021/01/09 11:53:01;;;;;;;27.80;17.70;;;2.60;99.90;;;;;;4999021;28;20457;-77
2021/01/09 11:55:27;;;;;;;33.40;18.47;;;2.70;99.90;;;;;;5008194;28;20571;-77
2021/01/09 11:57:52;;;;;;;31.30;18.43;;;2.60;99.90;;;;;;5014603;28;20214;-77
2021/01/09 12:00:20;;;;;;;27.83;17.30;;;2.70;99.90;;;;;;4996701;28;20183;-77
2021/01/09 12:02:45;;;;;;;31.40;18.35;;;2.70;99.90;;;;;;5005552;28;20307;-76
2021/01/09 12:05:11;;;;;;;28.10;17.67;;;2.70;99.90;;;;;;5001503;28;20745;-77
2021/01/09 12:07:37;;;;;;;33.53;18.30;;;2.80;99.90;;;;;;4996077;28;20223;-77
2021/01/09 12:10:07;;;;;;;33.90;17.90;;;2.70;99.90;;;;;;5001120;28;20754;-77
2021/01/09 12:12:34;;;;;;;29.15;16.60;;;2.60;99.90;;;;;;5003076;28;20222;-79
2021/01/09 12:15:01;;;;;;;29.83;16.38;;;2.50;99.90;;;;;;5007120;28;20185;-78
2021/01/09 12:17:27;;;;;;;28.65;17.30;;;2.50;99.90;;;;;;4992049;28;20235;-78
2021/01/09 12:19:52;;;;;;;32.80;16.87;;;2.50;99.90;;;;;;5001219;28;20317;-78
2021/01/09 12:22:18;;;;;;;28.30;15.20;;;2.60;99.90;;;;;;5003323;28;20237;-78
2021/01/09 12:24:44;;;;;;;24.77;14.93;;;2.60;99.90;;;;;;5000498;28;20288;-80
2021/01/09 12:27:10;;;;;;;30.30;16.67;;;2.70;99.90;;;;;;4996417;28;20703;-79
2021/01/09 12:29:37;;;;;;;35.33;17.40;;;2.70;99.90;;;;;;5006478;28;20249;-79
2021/01/09 12:32:03;;;;;;;26.85;16.40;;;2.80;99.90;;;;;;5005151;28;20229;-79
2021/01/09 12:34:29;;;;;;;27.05;15.80;;;2.90;99.90;;;;;;5000562;28;20182;-77
2021/01/09 12:36:55;;;;;;;30.20;17.67;;;2.90;99.90;;;;;;4992374;28;20214;-79
2021/01/09 12:39:21;;;;;;;30.63;16.97;;;2.90;99.90;;;;;;4993911;28;20425;-79
2021/01/09 12:41:47;;;;;;;29.15;15.93;;;3.00;99.90;;;;;;4998484;28;20222;-78